METAR LSZS 160220Z AUTO 19003KT 0500 FZFG VV002 M00/M00 Q1016=